sensor_id;sensor_type;location;lat;lon;timestamp;temperature;humidity
19496;DHT22;9888;48.606;9.630;2023-03-14T00:01:34;7.60;99.90
19496;DHT22;9888;48.606;9.630;2023-03-14T00:04:19;7.60;99.90
19496;DHT22;9888;48.606;9.630;2023-03-14T00:06:46;7.60;99.90
19496;DHT22;9888;48.606;9.630;2023-03-14T00:09:16;7.60;99.90
19496;DHT22;9888;48.606;9.630;2023-03-14T00:11:43;7.70;99.90
19496;DHT22;9888;48.606;9.630;2023-03-14T00:14:10;7.70;99.90
19496;DHT22;9888;48.606;9.630;2023-03-14T00:16:37;7.70;99.90
19496;DHT22;9888;48.606;9.630;2023-03-14T00:19:05;7.60;99.90
19496;DHT22;9888;48.606;9.630;2023-03-14T00:21:32;7.60;99.90
19496;DHT22;9888;48.606;9.630;2023-03-14T00:24:00;7.60;99.90
19496;DHT22;9888;48.606;9.630;2023-03-14T00:26:27;7.60;99.90
19496;DHT22;9888;48.606;9.630;2023-03-14T00:28:54;7.60;99.90
19496;DHT22;9888;48.606;9.630;2023-03-14T00:31:21;7.50;99.90
19496;DHT22;9888;48.606;9.630;2023-03-14T00:37:08;7.50;99.90
19496;DHT22;9888;48.606;9.630;2023-03-14T00:39:35;7.40;99.90
19496;DHT22;9888;48.606;9.630;2023-03-14T00:42:02;7.40;99.90
19496;DHT22;9888;48.606;9.630;2023-03-14T00:44:28;7.40;99.90
19496;DHT22;9888;48.606;9.630;2023-03-14T00:46:55;7.30;99.90
19496;DHT22;9888;48.606;9.630;2023-03-14T00:49:23;7.30;99.90
19496;DHT22;9888;48.606;9.630;2023-03-14T00:51:50;7.20;99.90
19496;DHT22;9888;48.606;9.630;2023-03-14T00:54:19;7.20;99.90
19496;DHT22;9888;48.606;9.630;2023-03-14T00:56:47;7.10;99.90
19496;DHT22;9888;48.606;9.630;2023-03-14T00:59:15;7.20;99.90
19496;DHT22;9888;48.606;9.630;2023-03-14T01:01:42;7.10;99.90
19496;DHT22;9888;48.606;9.630;2023-03-14T01:04:11;7.10;99.90
19496;DHT22;9888;48.606;9.630;2023-03-14T01:06:39;7.10;99.90
19496;DHT22;9888;48.606;9.630;2023-03-14T01:09:06;7.00;99.90
19496;DHT22;9888;48.606;9.630;2023-03-14T01:11:35;7.00;99.90
19496;DHT22;9888;48.606;9.630;2023-03-14T01:14:02;7.00;99.90
19496;DHT22;9888;48.606;9.630;2023-03-14T01:16:32;6.90;99.90
19496;DHT22;9888;48.606;9.630;2023-03-14T01:19:00;6.90;99.90
19496;DHT22;9888;48.606;9.630;2023-03-14T01:21:32;6.90;99.90
19496;DHT22;9888;48.606;9.630;2023-03-14T01:24:02;6.90;99.90
19496;DHT22;9888;48.606;9.630;2023-03-14T01:26:33;6.90;99.90
19496;DHT22;9888;48.606;9.630;2023-03-14T01:29:02;6.80;99.90
19496;DHT22;9888;48.606;9.630;2023-03-14T01:31:30;6.80;99.90
19496;DHT22;9888;48.606;9.630;2023-03-14T01:33:59;6.80;99.90
19496;DHT22;9888;48.606;9.630;2023-03-14T01:36:27;6.80;99.90
19496;DHT22;9888;48.606;9.630;2023-03-14T01:38:55;6.80;99.90
19496;DHT22;9888;48.606;9.630;2023-03-14T01:41:24;6.70;99.90
19496;DHT22;9888;48.606;9.630;2023-03-14T01:43:51;6.60;99.90
19496;DHT22;9888;48.606;9.630;2023-03-14T01:46:24;6.70;99.90
19496;DHT22;9888;48.606;9.630;2023-03-14T01:49:09;6.70;99.90
19496;DHT22;9888;48.606;9.630;2023-03-14T01:54:41;6.70;99.90
19496;DHT22;9888;48.606;9.630;2023-03-14T01:57:17;6.70;99.90
19496;DHT22;9888;48.606;9.630;2023-03-14T02:00:04;6.70;99.90
19496;DHT22;9888;48.606;9.630;2023-03-14T02:02:48;6.80;99.90
19496;DHT22;9888;48.606;9.630;2023-03-14T02:05:20;6.80;99.90
19496;DHT22;9888;48.606;9.630;2023-03-14T02:08:13;6.80;99.90
19496;DHT22;9888;48.606;9.630;2023-03-14T02:10:46;6.80;99.90
19496;DHT22;9888;48.606;9.630;2023-03-14T02:13:14;6.80;99.90
19496;DHT22;9888;48.606;9.630;2023-03-14T02:15:44;6.80;99.90
19496;DHT22;9888;48.606;9.630;2023-03-14T02:18:16;6.80;99.90
19496;DHT22;9888;48.606;9.630;2023-03-14T02:21:05;6.80;99.90
19496;DHT22;9888;48.606;9.630;2023-03-14T02:24:09;6.90;99.90
19496;DHT22;9888;48.606;9.630;2023-03-14T02:27:14;6.90;99.90
19496;DHT22;9888;48.606;9.630;2023-03-14T02:32:34;7.00;99.90
19496;DHT22;9888;48.606;9.630;2023-03-14T02:35:09;7.00;99.90
19496;DHT22;9888;48.606;9.630;2023-03-14T02:40:54;6.90;99.90
19496;DHT22;9888;48.606;9.630;2023-03-14T02:43:23;7.00;99.90
19496;DHT22;9888;48.606;9.630;2023-03-14T02:45:51;6.90;99.90
19496;DHT22;9888;48.606;9.630;2023-03-14T02:48:24;6.90;99.90
19496;DHT22;9888;48.606;9.630;2023-03-14T02:50:55;7.00;99.90
19496;DHT22;9888;48.606;9.630;2023-03-14T02:53:29;7.20;99.90
19496;DHT22;9888;48.606;9.630;2023-03-14T02:55:58;7.20;99.90
19496;DHT22;9888;48.606;9.630;2023-03-14T02:58:27;7.10;99.90
19496;DHT22;9888;48.606;9.630;2023-03-14T03:00:54;7.10;99.90
19496;DHT22;9888;48.606;9.630;2023-03-14T03:03:21;7.00;99.90
19496;DHT22;9888;48.606;9.630;2023-03-14T03:05:51;7.10;99.90
19496;DHT22;9888;48.606;9.630;2023-03-14T03:08:20;7.10;99.90
19496;DHT22;9888;48.606;9.630;2023-03-14T03:10:48;7.00;99.90
19496;DHT22;9888;48.606;9.630;2023-03-14T03:13:17;7.00;99.90
19496;DHT22;9888;48.606;9.630;2023-03-14T03:15:45;7.00;99.90
19496;DHT22;9888;48.606;9.630;2023-03-14T03:18:14;6.90;99.90
19496;DHT22;9888;48.606;9.630;2023-03-14T03:20:41;6.90;99.90
19496;DHT22;9888;48.606;9.630;2023-03-14T03:23:08;6.80;99.90
19496;DHT22;9888;48.606;9.630;2023-03-14T03:25:37;6.90;99.90
19496;DHT22;9888;48.606;9.630;2023-03-14T03:28:04;6.80;99.90
19496;DHT22;9888;48.606;9.630;2023-03-14T03:30:39;6.90;99.90
19496;DHT22;9888;48.606;9.630;2023-03-14T03:33:07;6.80;99.90
19496;DHT22;9888;48.606;9.630;2023-03-14T03:35:33;6.90;99.90
19496;DHT22;9888;48.606;9.630;2023-03-14T03:38:01;7.00;99.90
19496;DHT22;9888;48.606;9.630;2023-03-14T03:40:39;7.00;99.90
19496;DHT22;9888;48.606;9.630;2023-03-14T03:43:07;7.10;99.90
19496;DHT22;9888;48.606;9.630;2023-03-14T03:45:34;7.10;99.90
19496;DHT22;9888;48.606;9.630;2023-03-14T03:48:01;7.10;99.90
19496;DHT22;9888;48.606;9.630;2023-03-14T03:50:29;7.00;99.90
19496;DHT22;9888;48.606;9.630;2023-03-14T03:52:59;7.00;99.90
19496;DHT22;9888;48.606;9.630;2023-03-14T03:55:25;6.90;99.90
19496;DHT22;9888;48.606;9.630;2023-03-14T03:57:54;7.00;99.90
19496;DHT22;9888;48.606;9.630;2023-03-14T04:00:23;7.00;99.90
19496;DHT22;9888;48.606;9.630;2023-03-14T04:02:50;6.80;99.90
19496;DHT22;9888;48.606;9.630;2023-03-14T04:05:21;6.80;99.90
19496;DHT22;9888;48.606;9.630;2023-03-14T04:08:05;6.70;99.90
19496;DHT22;9888;48.606;9.630;2023-03-14T04:10:35;6.60;99.90
19496;DHT22;9888;48.606;9.630;2023-03-14T04:13:02;6.50;99.90
19496;DHT22;9888;48.606;9.630;2023-03-14T04:15:29;6.50;99.90
19496;DHT22;9888;48.606;9.630;2023-03-14T04:17:59;6.40;99.90
19496;DHT22;9888;48.606;9.630;2023-03-14T04:20:25;6.40;99.90
19496;DHT22;9888;48.606;9.630;2023-03-14T04:22:53;6.50;99.90
19496;DHT22;9888;48.606;9.630;2023-03-14T04:25:21;6.50;99.90
19496;DHT22;9888;48.606;9.630;2023-03-14T04:27:48;6.50;99.90
19496;DHT22;9888;48.606;9.630;2023-03-14T04:30:21;6.40;99.90
19496;DHT22;9888;48.606;9.630;2023-03-14T04:32:48;6.50;99.90
19496;DHT22;9888;48.606;9.630;2023-03-14T04:35:16;6.60;99.90
19496;DHT22;9888;48.606;9.630;2023-03-14T04:37:42;6.50;99.90
19496;DHT22;9888;48.606;9.630;2023-03-14T04:40:11;6.60;99.90
19496;DHT22;9888;48.606;9.630;2023-03-14T04:42:38;6.70;99.90
19496;DHT22;9888;48.606;9.630;2023-03-14T04:45:05;6.80;99.90
19496;DHT22;9888;48.606;9.630;2023-03-14T04:47:49;6.90;99.90
19496;DHT22;9888;48.606;9.630;2023-03-14T04:50:17;6.90;99.90
19496;DHT22;9888;48.606;9.630;2023-03-14T04:52:44;6.80;99.90
19496;DHT22;9888;48.606;9.630;2023-03-14T04:55:11;7.00;99.90
19496;DHT22;9888;48.606;9.630;2023-03-14T04:57:37;7.00;99.90
19496;DHT22;9888;48.606;9.630;2023-03-14T05:00:05;7.00;99.90
19496;DHT22;9888;48.606;9.630;2023-03-14T05:02:33;7.00;99.90
19496;DHT22;9888;48.606;9.630;2023-03-14T05:05:00;7.00;99.90
19496;DHT22;9888;48.606;9.630;2023-03-14T05:07:27;6.90;99.90
19496;DHT22;9888;48.606;9.630;2023-03-14T05:13:15;6.70;99.90
19496;DHT22;9888;48.606;9.630;2023-03-14T05:15:42;6.70;99.90
19496;DHT22;9888;48.606;9.630;2023-03-14T05:18:09;6.70;99.90
19496;DHT22;9888;48.606;9.630;2023-03-14T05:20:38;6.60;99.90
19496;DHT22;9888;48.606;9.630;2023-03-14T05:26:17;6.50;99.90
19496;DHT22;9888;48.606;9.630;2023-03-14T05:28:45;6.50;99.90
19496;DHT22;9888;48.606;9.630;2023-03-14T05:31:12;6.50;99.90
19496;DHT22;9888;48.606;9.630;2023-03-14T05:33:40;6.50;99.90
19496;DHT22;9888;48.606;9.630;2023-03-14T05:36:07;6.50;99.90
19496;DHT22;9888;48.606;9.630;2023-03-14T05:38:35;6.50;99.90
19496;DHT22;9888;48.606;9.630;2023-03-14T05:41:03;6.50;99.90
19496;DHT22;9888;48.606;9.630;2023-03-14T05:43:29;6.50;99.90
19496;DHT22;9888;48.606;9.630;2023-03-14T05:49:01;6.40;99.90
19496;DHT22;9888;48.606;9.630;2023-03-14T05:51:28;6.50;99.90
19496;DHT22;9888;48.606;9.630;2023-03-14T05:53:56;6.60;99.90
19496;DHT22;9888;48.606;9.630;2023-03-14T05:56:23;6.60;99.90
19496;DHT22;9888;48.606;9.630;2023-03-14T05:58:50;6.70;99.90
19496;DHT22;9888;48.606;9.630;2023-03-14T06:01:17;6.70;99.90
19496;DHT22;9888;48.606;9.630;2023-03-14T06:03:44;6.60;99.90
19496;DHT22;9888;48.606;9.630;2023-03-14T06:06:12;6.60;99.90
19496;DHT22;9888;48.606;9.630;2023-03-14T06:08:42;6.60;99.90
19496;DHT22;9888;48.606;9.630;2023-03-14T06:11:10;6.60;99.90
19496;DHT22;9888;48.606;9.630;2023-03-14T06:13:38;6.50;99.90
19496;DHT22;9888;48.606;9.630;2023-03-14T06:16:05;6.30;99.90
19496;DHT22;9888;48.606;9.630;2023-03-14T06:18:32;6.20;99.90
19496;DHT22;9888;48.606;9.630;2023-03-14T06:20:59;6.20;99.90
19496;DHT22;9888;48.606;9.630;2023-03-14T06:23:26;6.30;99.90
19496;DHT22;9888;48.606;9.630;2023-03-14T06:25:56;6.40;99.90
19496;DHT22;9888;48.606;9.630;2023-03-14T06:28:23;6.50;99.90
19496;DHT22;9888;48.606;9.630;2023-03-14T06:30:50;6.50;99.90
19496;DHT22;9888;48.606;9.630;2023-03-14T06:33:17;6.60;99.90
19496;DHT22;9888;48.606;9.630;2023-03-14T06:35:44;6.60;99.90
19496;DHT22;9888;48.606;9.630;2023-03-14T06:38:11;6.70;99.90
19496;DHT22;9888;48.606;9.630;2023-03-14T06:40:39;6.80;99.90
19496;DHT22;9888;48.606;9.630;2023-03-14T06:43:07;6.80;99.90
19496;DHT22;9888;48.606;9.630;2023-03-14T06:45:34;6.80;99.90
19496;DHT22;9888;48.606;9.630;2023-03-14T06:48:01;6.80;99.90
19496;DHT22;9888;48.606;9.630;2023-03-14T06:50:29;6.80;99.90
19496;DHT22;9888;48.606;9.630;2023-03-14T06:52:55;6.80;99.90
19496;DHT22;9888;48.606;9.630;2023-03-14T06:55:22;6.80;99.90
19496;DHT22;9888;48.606;9.630;2023-03-14T06:57:49;6.90;99.90
19496;DHT22;9888;48.606;9.630;2023-03-14T07:00:16;6.90;99.90
19496;DHT22;9888;48.606;9.630;2023-03-14T07:02:43;6.90;99.90
19496;DHT22;9888;48.606;9.630;2023-03-14T07:05:10;6.90;99.90
19496;DHT22;9888;48.606;9.630;2023-03-14T07:07:37;7.00;99.90
19496;DHT22;9888;48.606;9.630;2023-03-14T07:10:04;7.00;99.90
19496;DHT22;9888;48.606;9.630;2023-03-14T07:12:31;7.00;99.90
19496;DHT22;9888;48.606;9.630;2023-03-14T07:14:59;7.00;99.90
19496;DHT22;9888;48.606;9.630;2023-03-14T07:17:27;7.10;99.90
19496;DHT22;9888;48.606;9.630;2023-03-14T07:19:53;7.20;99.90
19496;DHT22;9888;48.606;9.630;2023-03-14T07:22:20;7.20;99.90
19496;DHT22;9888;48.606;9.630;2023-03-14T07:24:48;7.30;99.90
19496;DHT22;9888;48.606;9.630;2023-03-14T07:27:15;7.40;99.90
19496;DHT22;9888;48.606;9.630;2023-03-14T07:29:47;7.50;99.90
19496;DHT22;9888;48.606;9.630;2023-03-14T07:32:14;7.70;99.90
19496;DHT22;9888;48.606;9.630;2023-03-14T07:34:41;7.80;99.90
19496;DHT22;9888;48.606;9.630;2023-03-14T07:37:09;7.80;99.90
19496;DHT22;9888;48.606;9.630;2023-03-14T07:39:35;7.80;99.90
19496;DHT22;9888;48.606;9.630;2023-03-14T07:42:02;7.90;99.90
19496;DHT22;9888;48.606;9.630;2023-03-14T07:44:30;7.90;99.90
19496;DHT22;9888;48.606;9.630;2023-03-14T07:46:57;7.90;99.90
19496;DHT22;9888;48.606;9.630;2023-03-14T07:49:24;7.90;99.90
19496;DHT22;9888;48.606;9.630;2023-03-14T07:51:51;8.00;99.90
19496;DHT22;9888;48.606;9.630;2023-03-14T07:54:18;8.20;99.90
19496;DHT22;9888;48.606;9.630;2023-03-14T07:56:45;8.30;99.90
19496;DHT22;9888;48.606;9.630;2023-03-14T07:59:12;8.40;99.90
19496;DHT22;9888;48.606;9.630;2023-03-14T08:01:39;8.50;99.90
19496;DHT22;9888;48.606;9.630;2023-03-14T08:04:06;8.70;99.90
19496;DHT22;9888;48.606;9.630;2023-03-14T08:06:32;9.10;99.90
19496;DHT22;9888;48.606;9.630;2023-03-14T08:09:01;9.60;99.90
19496;DHT22;9888;48.606;9.630;2023-03-14T08:11:28;10.20;99.90
19496;DHT22;9888;48.606;9.630;2023-03-14T08:13:56;10.90;99.90
19496;DHT22;9888;48.606;9.630;2023-03-14T08:16:23;11.20;99.90
19496;DHT22;9888;48.606;9.630;2023-03-14T08:22:12;12.00;99.90
19496;DHT22;9888;48.606;9.630;2023-03-14T08:24:39;10.70;99.90
19496;DHT22;9888;48.606;9.630;2023-03-14T08:27:07;10.90;99.90
19496;DHT22;9888;48.606;9.630;2023-03-14T08:30:02;11.00;99.90
19496;DHT22;9888;48.606;9.630;2023-03-14T08:32:30;11.70;99.90
19496;DHT22;9888;48.606;9.630;2023-03-14T08:34:58;12.10;99.90
19496;DHT22;9888;48.606;9.630;2023-03-14T08:37:26;12.30;99.90
19496;DHT22;9888;48.606;9.630;2023-03-14T08:39:56;11.90;99.90
19496;DHT22;9888;48.606;9.630;2023-03-14T08:42:25;11.20;99.90
19496;DHT22;9888;48.606;9.630;2023-03-14T08:44:52;10.80;99.90
19496;DHT22;9888;48.606;9.630;2023-03-14T08:47:20;10.90;99.90
19496;DHT22;9888;48.606;9.630;2023-03-14T08:49:47;10.80;99.90
19496;DHT22;9888;48.606;9.630;2023-03-14T08:52:16;10.40;99.90
19496;DHT22;9888;48.606;9.630;2023-03-14T08:54:49;10.40;99.90
19496;DHT22;9888;48.606;9.630;2023-03-14T08:57:17;10.30;99.90
19496;DHT22;9888;48.606;9.630;2023-03-14T08:59:43;10.30;99.90
19496;DHT22;9888;48.606;9.630;2023-03-14T09:02:12;10.20;99.90
19496;DHT22;9888;48.606;9.630;2023-03-14T09:04:42;10.20;99.90
19496;DHT22;9888;48.606;9.630;2023-03-14T09:07:09;10.30;99.90
19496;DHT22;9888;48.606;9.630;2023-03-14T09:09:37;10.40;99.90
19496;DHT22;9888;48.606;9.630;2023-03-14T09:12:11;10.20;99.90
19496;DHT22;9888;48.606;9.630;2023-03-14T09:14:37;10.20;99.90
19496;DHT22;9888;48.606;9.630;2023-03-14T09:17:04;10.20;99.90
19496;DHT22;9888;48.606;9.630;2023-03-14T09:19:35;10.10;99.90
19496;DHT22;9888;48.606;9.630;2023-03-14T09:22:04;9.90;99.90
19496;DHT22;9888;48.606;9.630;2023-03-14T09:24:33;9.90;99.90
19496;DHT22;9888;48.606;9.630;2023-03-14T09:27:02;10.00;99.90
19496;DHT22;9888;48.606;9.630;2023-03-14T09:29:30;11.50;99.90
19496;DHT22;9888;48.606;9.630;2023-03-14T09:31:58;11.60;99.90
19496;DHT22;9888;48.606;9.630;2023-03-14T09:34:27;11.10;99.90
19496;DHT22;9888;48.606;9.630;2023-03-14T09:36:58;11.30;99.90
19496;DHT22;9888;48.606;9.630;2023-03-14T09:39:26;11.10;99.90
19496;DHT22;9888;48.606;9.630;2023-03-14T09:41:55;11.10;99.90
19496;DHT22;9888;48.606;9.630;2023-03-14T09:44:25;11.10;99.90
19496;DHT22;9888;48.606;9.630;2023-03-14T09:46:56;11.00;99.90
19496;DHT22;9888;48.606;9.630;2023-03-14T09:49:43;11.10;99.90
19496;DHT22;9888;48.606;9.630;2023-03-14T09:52:26;11.10;99.90
19496;DHT22;9888;48.606;9.630;2023-03-14T09:54:58;11.20;99.90
19496;DHT22;9888;48.606;9.630;2023-03-14T09:57:28;11.00;99.90
19496;DHT22;9888;48.606;9.630;2023-03-14T10:00:00;10.90;99.90
19496;DHT22;9888;48.606;9.630;2023-03-14T10:02:39;11.10;99.90
19496;DHT22;9888;48.606;9.630;2023-03-14T10:05:18;11.30;99.90
19496;DHT22;9888;48.606;9.630;2023-03-14T10:07:45;11.10;99.90
19496;DHT22;9888;48.606;9.630;2023-03-14T10:10:24;11.30;99.90
19496;DHT22;9888;48.606;9.630;2023-03-14T10:15:31;11.00;99.90
19496;DHT22;9888;48.606;9.630;2023-03-14T10:18:01;11.60;99.90
19496;DHT22;9888;48.606;9.630;2023-03-14T10:20:33;11.50;99.90
19496;DHT22;9888;48.606;9.630;2023-03-14T10:23:23;11.40;99.90
19496;DHT22;9888;48.606;9.630;2023-03-14T10:26:12;10.90;99.90
19496;DHT22;9888;48.606;9.630;2023-03-14T10:28:50;10.40;99.90
19496;DHT22;9888;48.606;9.630;2023-03-14T10:31:24;10.20;99.90
19496;DHT22;9888;48.606;9.630;2023-03-14T10:34:04;9.90;99.90
19496;DHT22;9888;48.606;9.630;2023-03-14T10:36:34;9.70;99.90
19496;DHT22;9888;48.606;9.630;2023-03-14T10:39:30;9.80;99.90
19496;DHT22;9888;48.606;9.630;2023-03-14T10:42:27;9.90;99.90
19496;DHT22;9888;48.606;9.630;2023-03-14T10:45:06;10.10;99.90
19496;DHT22;9888;48.606;9.630;2023-03-14T10:47:38;10.30;99.90
19496;DHT22;9888;48.606;9.630;2023-03-14T10:50:27;10.40;99.90
19496;DHT22;9888;48.606;9.630;2023-03-14T10:52:55;10.40;99.90
19496;DHT22;9888;48.606;9.630;2023-03-14T10:55:25;10.60;99.90
19496;DHT22;9888;48.606;9.630;2023-03-14T10:57:53;10.70;99.90
19496;DHT22;9888;48.606;9.630;2023-03-14T11:00:22;11.10;99.90
19496;DHT22;9888;48.606;9.630;2023-03-14T11:03:12;11.40;99.90
19496;DHT22;9888;48.606;9.630;2023-03-14T11:05:48;11.40;99.90
19496;DHT22;9888;48.606;9.630;2023-03-14T11:08:27;11.50;99.90
19496;DHT22;9888;48.606;9.630;2023-03-14T11:11:23;11.60;99.90
19496;DHT22;9888;48.606;9.630;2023-03-14T11:13:58;11.00;99.90
19496;DHT22;9888;48.606;9.630;2023-03-14T11:20:17;10.70;99.90
19496;DHT22;9888;48.606;9.630;2023-03-14T11:23:01;10.80;99.90
19496;DHT22;9888;48.606;9.630;2023-03-14T11:30:53;10.60;99.90
19496;DHT22;9888;48.606;9.630;2023-03-14T11:36:20;10.50;99.90
19496;DHT22;9888;48.606;9.630;2023-03-14T11:38:55;10.30;99.90
19496;DHT22;9888;48.606;9.630;2023-03-14T11:41:32;10.10;99.90
19496;DHT22;9888;48.606;9.630;2023-03-14T11:44:08;9.80;99.90
19496;DHT22;9888;48.606;9.630;2023-03-14T11:46:46;9.40;99.90
19496;DHT22;9888;48.606;9.630;2023-03-14T11:49:32;9.10;99.90
19496;DHT22;9888;48.606;9.630;2023-03-14T11:52:09;9.00;99.90
19496;DHT22;9888;48.606;9.630;2023-03-14T11:54:59;8.90;99.90
19496;DHT22;9888;48.606;9.630;2023-03-14T11:57:28;9.00;99.90
19496;DHT22;9888;48.606;9.630;2023-03-14T12:00:04;9.10;99.90
19496;DHT22;9888;48.606;9.630;2023-03-14T12:05:57;8.90;99.90
19496;DHT22;9888;48.606;9.630;2023-03-14T12:08:42;8.90;99.90
19496;DHT22;9888;48.606;9.630;2023-03-14T12:11:31;8.80;99.90
19496;DHT22;9888;48.606;9.630;2023-03-14T12:14:01;8.60;99.90
19496;DHT22;9888;48.606;9.630;2023-03-14T12:16:39;8.50;99.90
19496;DHT22;9888;48.606;9.630;2023-03-14T12:21:51;8.30;99.90
19496;DHT22;9888;48.606;9.630;2023-03-14T12:24:26;8.30;99.90
19496;DHT22;9888;48.606;9.630;2023-03-14T12:27:12;8.30;99.90
19496;DHT22;9888;48.606;9.630;2023-03-14T12:29:59;8.30;99.90
19496;DHT22;9888;48.606;9.630;2023-03-14T12:32:27;8.40;99.90
19496;DHT22;9888;48.606;9.630;2023-03-14T12:34:56;8.30;99.90
19496;DHT22;9888;48.606;9.630;2023-03-14T12:37:54;8.20;99.90
19496;DHT22;9888;48.606;9.630;2023-03-14T12:40:31;8.10;99.90
19496;DHT22;9888;48.606;9.630;2023-03-14T12:43:04;8.10;99.90
19496;DHT22;9888;48.606;9.630;2023-03-14T12:48:50;7.90;99.90
19496;DHT22;9888;48.606;9.630;2023-03-14T12:51:36;7.70;99.90
19496;DHT22;9888;48.606;9.630;2023-03-14T12:59:40;7.70;99.90
19496;DHT22;9888;48.606;9.630;2023-03-14T13:02:41;7.60;99.90
19496;DHT22;9888;48.606;9.630;2023-03-14T13:05:20;7.50;99.90
19496;DHT22;9888;48.606;9.630;2023-03-14T13:11:19;7.40;99.90
19496;DHT22;9888;48.606;9.630;2023-03-14T13:13:56;7.40;99.90
19496;DHT22;9888;48.606;9.630;2023-03-14T13:16:24;7.40;99.90
19496;DHT22;9888;48.606;9.630;2023-03-14T13:22:17;7.80;99.90
19496;DHT22;9888;48.606;9.630;2023-03-14T13:24:46;8.00;99.90
19496;DHT22;9888;48.606;9.630;2023-03-14T13:27:21;8.10;99.90
19496;DHT22;9888;48.606;9.630;2023-03-14T13:29:51;7.90;99.90
19496;DHT22;9888;48.606;9.630;2023-03-14T13:32:28;7.80;99.90
19496;DHT22;9888;48.606;9.630;2023-03-14T13:34:57;7.60;99.90
19496;DHT22;9888;48.606;9.630;2023-03-14T13:37:31;7.50;99.90
19496;DHT22;9888;48.606;9.630;2023-03-14T13:39:59;7.40;99.90
19496;DHT22;9888;48.606;9.630;2023-03-14T13:42:29;7.30;99.90
19496;DHT22;9888;48.606;9.630;2023-03-14T13:44:57;7.20;99.90
19496;DHT22;9888;48.606;9.630;2023-03-14T13:47:26;7.10;99.90
19496;DHT22;9888;48.606;9.630;2023-03-14T13:49:54;7.10;99.90
19496;DHT22;9888;48.606;9.630;2023-03-14T13:52:28;7.10;99.90
19496;DHT22;9888;48.606;9.630;2023-03-14T13:54:58;7.00;99.90
19496;DHT22;9888;48.606;9.630;2023-03-14T13:57:27;7.00;99.90
19496;DHT22;9888;48.606;9.630;2023-03-14T14:00:05;6.80;99.90
19496;DHT22;9888;48.606;9.630;2023-03-14T14:02:39;6.80;99.90
19496;DHT22;9888;48.606;9.630;2023-03-14T14:05:11;6.90;99.90
19496;DHT22;9888;48.606;9.630;2023-03-14T14:07:40;6.80;99.90
19496;DHT22;9888;48.606;9.630;2023-03-14T14:10:12;6.60;99.90
19496;DHT22;9888;48.606;9.630;2023-03-14T14:12:50;6.60;99.90
19496;DHT22;9888;48.606;9.630;2023-03-14T14:15:28;6.60;99.90
19496;DHT22;9888;48.606;9.630;2023-03-14T14:17:59;6.60;99.90
19496;DHT22;9888;48.606;9.630;2023-03-14T14:20:33;6.50;99.90
19496;DHT22;9888;48.606;9.630;2023-03-14T14:23:05;6.50;99.90
19496;DHT22;9888;48.606;9.630;2023-03-14T14:25:33;6.30;99.90
19496;DHT22;9888;48.606;9.630;2023-03-14T14:33:43;6.40;99.90
19496;DHT22;9888;48.606;9.630;2023-03-14T14:39:01;6.40;99.90
19496;DHT22;9888;48.606;9.630;2023-03-14T14:41:34;6.40;99.90
19496;DHT22;9888;48.606;9.630;2023-03-14T14:44:04;6.40;99.90
19496;DHT22;9888;48.606;9.630;2023-03-14T14:46:34;6.40;99.90
19496;DHT22;9888;48.606;9.630;2023-03-14T14:49:15;6.50;99.90
19496;DHT22;9888;48.606;9.630;2023-03-14T14:51:49;6.50;99.90
19496;DHT22;9888;48.606;9.630;2023-03-14T14:54:33;6.40;99.90
19496;DHT22;9888;48.606;9.630;2023-03-14T14:57:06;6.90;99.90
19496;DHT22;9888;48.606;9.630;2023-03-14T14:59:42;6.60;99.90
19496;DHT22;9888;48.606;9.630;2023-03-14T15:02:39;6.50;99.90
19496;DHT22;9888;48.606;9.630;2023-03-14T15:05:22;6.40;99.90
19496;DHT22;9888;48.606;9.630;2023-03-14T15:07:50;6.30;99.90
19496;DHT22;9888;48.606;9.630;2023-03-14T15:10:23;6.10;99.90
19496;DHT22;9888;48.606;9.630;2023-03-14T15:12:51;6.30;99.90
19496;DHT22;9888;48.606;9.630;2023-03-14T15:15:19;6.50;99.90
19496;DHT22;9888;48.606;9.630;2023-03-14T15:17:47;6.40;99.90
19496;DHT22;9888;48.606;9.630;2023-03-14T15:20:16;6.20;99.90
19496;DHT22;9888;48.606;9.630;2023-03-14T15:22:46;6.10;99.90
19496;DHT22;9888;48.606;9.630;2023-03-14T15:25:13;6.10;99.90
19496;DHT22;9888;48.606;9.630;2023-03-14T15:27:40;6.00;99.90
19496;DHT22;9888;48.606;9.630;2023-03-14T15:30:14;5.90;99.90
19496;DHT22;9888;48.606;9.630;2023-03-14T15:32:41;5.90;99.90
19496;DHT22;9888;48.606;9.630;2023-03-14T15:35:08;6.00;99.90
19496;DHT22;9888;48.606;9.630;2023-03-14T15:37:39;6.10;99.90
19496;DHT22;9888;48.606;9.630;2023-03-14T15:40:09;6.70;99.90
19496;DHT22;9888;48.606;9.630;2023-03-14T15:42:43;6.60;99.90
19496;DHT22;9888;48.606;9.630;2023-03-14T15:45:11;6.50;99.90
19496;DHT22;9888;48.606;9.630;2023-03-14T15:47:39;6.40;99.90
19496;DHT22;9888;48.606;9.630;2023-03-14T15:50:08;7.00;99.90
19496;DHT22;9888;48.606;9.630;2023-03-14T15:52:38;6.70;99.90
19496;DHT22;9888;48.606;9.630;2023-03-14T15:55:05;6.60;99.90
19496;DHT22;9888;48.606;9.630;2023-03-14T15:57:32;6.60;99.90
19496;DHT22;9888;48.606;9.630;2023-03-14T16:00:00;6.40;99.90
19496;DHT22;9888;48.606;9.630;2023-03-14T16:02:30;6.40;99.90
19496;DHT22;9888;48.606;9.630;2023-03-14T16:04:57;6.70;99.90
19496;DHT22;9888;48.606;9.630;2023-03-14T16:07:25;7.50;99.90
19496;DHT22;9888;48.606;9.630;2023-03-14T16:09:53;7.90;99.90
19496;DHT22;9888;48.606;9.630;2023-03-14T16:12:23;7.40;99.90
19496;DHT22;9888;48.606;9.630;2023-03-14T16:14:51;6.90;99.90
19496;DHT22;9888;48.606;9.630;2023-03-14T16:17:19;6.60;99.90
19496;DHT22;9888;48.606;9.630;2023-03-14T16:19:48;6.30;99.90
19496;DHT22;9888;48.606;9.630;2023-03-14T16:22:15;6.20;99.90
19496;DHT22;9888;48.606;9.630;2023-03-14T16:24:42;6.10;99.90
19496;DHT22;9888;48.606;9.630;2023-03-14T16:27:14;6.00;99.90
19496;DHT22;9888;48.606;9.630;2023-03-14T16:29:45;5.90;99.90
19496;DHT22;9888;48.606;9.630;2023-03-14T16:32:14;5.90;99.90
19496;DHT22;9888;48.606;9.630;2023-03-14T16:34:41;5.90;99.90
19496;DHT22;9888;48.606;9.630;2023-03-14T16:37:08;6.00;99.90
19496;DHT22;9888;48.606;9.630;2023-03-14T16:39:35;6.00;99.90
19496;DHT22;9888;48.606;9.630;2023-03-14T16:42:08;6.00;99.90
19496;DHT22;9888;48.606;9.630;2023-03-14T16:44:36;5.90;99.90
19496;DHT22;9888;48.606;9.630;2023-03-14T16:47:03;5.80;99.90
19496;DHT22;9888;48.606;9.630;2023-03-14T16:49:30;5.70;99.90
19496;DHT22;9888;48.606;9.630;2023-03-14T16:51:57;5.70;99.90
19496;DHT22;9888;48.606;9.630;2023-03-14T16:54:25;5.70;99.90
19496;DHT22;9888;48.606;9.630;2023-03-14T16:56:52;5.60;99.90
19496;DHT22;9888;48.606;9.630;2023-03-14T16:59:20;5.70;99.90
19496;DHT22;9888;48.606;9.630;2023-03-14T17:01:48;5.70;99.90
19496;DHT22;9888;48.606;9.630;2023-03-14T17:04:15;5.60;99.90
19496;DHT22;9888;48.606;9.630;2023-03-14T17:06:43;5.60;99.90
19496;DHT22;9888;48.606;9.630;2023-03-14T17:09:10;5.50;99.90
19496;DHT22;9888;48.606;9.630;2023-03-14T17:11:38;5.50;99.90
19496;DHT22;9888;48.606;9.630;2023-03-14T17:14:05;5.50;99.90
19496;DHT22;9888;48.606;9.630;2023-03-14T17:16:33;5.40;99.90
19496;DHT22;9888;48.606;9.630;2023-03-14T17:19:00;5.40;99.90
19496;DHT22;9888;48.606;9.630;2023-03-14T17:21:28;5.40;99.90
19496;DHT22;9888;48.606;9.630;2023-03-14T17:23:55;5.50;99.90
19496;DHT22;9888;48.606;9.630;2023-03-14T17:26:24;5.40;99.90
19496;DHT22;9888;48.606;9.630;2023-03-14T17:28:51;5.40;99.90
19496;DHT22;9888;48.606;9.630;2023-03-14T17:33:46;5.30;99.90
19496;DHT22;9888;48.606;9.630;2023-03-14T17:36:13;5.30;99.90